Time;durP1;ratioP1;P1;durP2;ratioP2;P2;SDS_P1;SDS_P2;PMS_P1;PMS_P2;Temp;Humidity;BMP_temperature;BMP_pressure;BME280_temperature;BME280_humidity;BME280_pressure;Samples;Min_cycle;Max_cycle;Signal;HPM_P1;HPM_P2
2021/01/08 06:01:59;;;;;;;31.48;18.65;;;;;;;;;;5064816;28;20388;-63
2021/01/08 06:04:33;;;;;;;34.58;18.33;;;;;;;;;;5053296;28;20091;-65
2021/01/08 06:06:59;;;;;;;34.38;18.13;;;;;;;;;;5053582;28;20037;-64
2021/01/08 06:09:25;;;;;;;31.85;18.40;;;;;;;;;;5052983;28;20102;-65
2021/01/08 06:11:53;;;;;;;31.73;18.67;;;;;;;;;;5053068;28;20037;-64
2021/01/08 06:14:20;;;;;;;34.03;18.67;;;;;;;;;;5050239;28;20055;-64
2021/01/08 06:16:47;;;;;;;36.97;20.05;;;;;;;;;;5064719;28;20079;-63
2021/01/08 06:19:14;;;;;;;35.42;19.63;;;;;;;;;;5053181;28;20403;-64
2021/01/08 06:21:42;;;;;;;35.88;19.75;;;;;;;;;;5052086;28;20040;-65
2021/01/08 06:24:11;;;;;;;34.17;19.27;;;;;;;;;;5052439;28;20109;-64
2021/01/08 06:26:37;;;;;;;41.22;19.92;;;;;;;;;;5052306;28;20091;-64
2021/01/08 06:29:11;;;;;;;39.45;22.25;;;;;;;;;;5048107;28;20036;-63
2021/01/08 06:31:37;;;;;;;36.42;20.90;;;;;;;;;;5050233;28;20052;-63
2021/01/08 06:34:03;;;;;;;40.88;20.23;;;;;;;;;;5061968;28;20142;-63
2021/01/08 06:36:31;;;;;;;37.92;20.55;;;;;;;;;;5055580;28;20037;-63
2021/01/08 06:38:58;;;;;;;38.33;20.35;;;;;;;;;;5052389;28;20021;-62
2021/01/08 06:41:24;;;;;;;39.92;20.65;;;;;;;;;;5050868;28;20067;-63
2021/01/08 06:43:50;;;;;;;39.78;20.08;;;;;;;;;;5049081;28;20029;-65
2021/01/08 06:46:27;;;;;;;39.65;20.50;;;;;;;;;;5052064;28;20026;-63
2021/01/08 06:48:56;;;;;;;36.42;19.38;;;;;;;;;;5052082;28;20371;-62
2021/01/08 06:51:26;;;;;;;37.88;21.15;;;;;;;;;;5051911;28;20037;-66
2021/01/08 06:53:54;;;;;;;44.55;21.88;;;;;;;;;;5052265;28;20444;-64
2021/01/08 06:56:27;;;;;;;35.55;19.80;;;;;;;;;;5050060;28;20132;-64
2021/01/08 06:58:57;;;;;;;41.65;19.60;;;;;;;;;;5047886;28;20029;-64
2021/01/08 07:01:25;;;;;;;40.53;19.75;;;;;;;;;;5061638;28;20468;-62
2021/01/08 07:03:53;;;;;;;39.90;20.98;;;;;;;;;;5049700;28;20056;-61
2021/01/08 07:06:19;;;;;;;37.97;20.63;;;;;;;;;;5050444;28;20028;-63
2021/01/08 07:08:46;;;;;;;41.60;21.58;;;;;;;;;;5047884;28;20537;-62
2021/01/08 07:11:21;;;;;;;41.60;21.42;;;;;;;;;;5038097;28;20025;-64
2021/01/08 07:13:48;;;;;;;41.67;21.90;;;;;;;;;;5050348;28;20397;-62
2021/01/08 07:16:20;;;;;;;45.97;22.95;;;;;;;;;;5038041;28;20421;-67
2021/01/08 07:18:47;;;;;;;42.70;22.67;;;;;;;;;;5038322;28;20037;-62
2021/01/08 07:21:23;;;;;;;42.88;22.85;;;;;;;;;;5044849;28;20033;-63
2021/01/08 07:23:50;;;;;;;45.42;22.52;;;;;;;;;;5047537;28;20501;-62
2021/01/08 07:26:19;;;;;;;54.53;24.27;;;;;;;;;;5034813;28;20020;-61
2021/01/08 07:28:50;;;;;;;43.05;22.35;;;;;;;;;;5037757;28;20029;-62
2021/01/08 07:31:27;;;;;;;45.63;22.55;;;;;;;;;;5037616;28;20036;-62
2021/01/08 07:33:53;;;;;;;47.28;22.23;;;;;;;;;;5045468;28;20029;-62
2021/01/08 07:36:26;;;;;;;45.10;24.00;;;;;;;;;;5043345;28;20020;-62
2021/01/08 07:38:52;;;;;;;41.60;22.33;;;;;;;;;;5037707;28;20037;-59
2021/01/08 07:41:31;;;;;;;51.03;24.17;;;;;;;;;;5047535;28;20032;-62
2021/01/08 07:43:57;;;;;;;50.05;23.13;;;;;;;;;;5050019;28;20032;-62
2021/01/08 07:46:28;;;;;;;45.55;23.77;;;;;;;;;;5037039;28;20030;-61
2021/01/08 07:48:56;;;;;;;46.33;23.27;;;;;;;;;;5047594;28;20029;-62
2021/01/08 07:51:23;;;;;;;51.35;23.85;;;;;;;;;;5042837;28;20112;-63
2021/01/08 07:53:50;;;;;;;46.47;23.20;;;;;;;;;;5037916;28;20025;-57
2021/01/08 07:56:20;;;;;;;48.03;23.08;;;;;;;;;;5035784;28;20045;-61
2021/01/08 07:59:07;;;;;;;44.67;22.63;;;;;;;;;;5034763;28;20112;-61
2021/01/08 08:01:33;;;;;;;45.25;22.40;;;;;;;;;;5048468;28;20156;-62
2021/01/08 08:04:03;;;;;;;43.78;22.25;;;;;;;;;;5037813;28;20036;-61
2021/01/08 08:06:30;;;;;;;41.95;22.25;;;;;;;;;;5037676;28;20034;-62
2021/01/08 08:08:58;;;;;;;48.55;23.95;;;;;;;;;;5037607;28;20088;-61
2021/01/08 08:11:27;;;;;;;52.00;23.27;;;;;;;;;;5036117;28;20037;-61
2021/01/08 08:13:53;;;;;;;51.40;23.65;;;;;;;;;;5033033;28;20417;-62
2021/01/08 08:16:29;;;;;;;45.35;22.63;;;;;;;;;;5037164;28;20542;-61
2021/01/08 08:18:55;;;;;;;48.38;22.45;;;;;;;;;;5036523;28;20390;-60
2021/01/08 08:21:22;;;;;;;46.85;21.90;;;;;;;;;;5038102;28;20064;-61
2021/01/08 08:23:57;;;;;;;48.58;23.45;;;;;;;;;;5038937;28;20032;-61
2021/01/08 08:26:23;;;;;;;44.97;22.30;;;;;;;;;;5048299;28;20041;-61
2021/01/08 08:28:58;;;;;;;49.40;22.75;;;;;;;;;;5033691;28;20018;-61
2021/01/08 08:31:24;;;;;;;;;;;;;;;;;;5047409;28;20045;-61
2021/01/08 08:33:50;;;;;;;42.90;22.02;;;;;;;;;;5048467;28;19916;-61
2021/01/08 08:36:21;;;;;;;49.60;22.55;;;;;;;;;;5045122;28;20079;-60
2021/01/08 08:39:06;;;;;;;42.60;22.83;;;;;;;;;;5047991;28;20032;-56
2021/01/08 08:41:33;;;;;;;47.90;22.75;;;;;;;;;;5037483;28;20402;-61
2021/01/08 08:44:09;;;;;;;47.00;23.25;;;;;;;;;;5049125;28;20032;-61
2021/01/08 08:46:54;;;;;;;42.95;22.17;;;;;;;;;;5047271;28;20044;-59
2021/01/08 08:49:20;;;;;;;45.55;22.95;;;;;;;;;;5036472;28;20446;-61
2021/01/08 08:51:50;;;;;;;41.33;21.35;;;;;;;;;;5046604;28;20021;-61
2021/01/08 08:54:16;;;;;;;46.97;22.80;;;;;;;;;;5046972;28;20035;-61
2021/01/08 08:56:53;;;;;;;41.90;21.85;;;;;;;;;;5049109;28;20029;-62
2021/01/08 08:59:35;;;;;;;45.65;21.25;;;;;;;;;;5045061;28;20075;-61
2021/01/08 09:02:02;;;;;;;43.45;20.52;;;;;;;;;;5046385;28;20034;-61
2021/01/08 09:04:28;;;;;;;37.47;19.52;;;;;;;;;;5049791;28;20047;-61
2021/01/08 09:06:56;;;;;;;37.80;19.52;;;;;;;;;;5048826;28;20040;-61
2021/01/08 09:09:24;;;;;;;38.28;18.50;;;;;;;;;;5048720;28;20075;-61
2021/01/08 09:11:56;;;;;;;35.92;18.20;;;;;;;;;;5048817;28;20044;-60
2021/01/08 09:14:25;;;;;;;35.40;18.33;;;;;;;;;;5043521;28;22192;-60
2021/01/08 09:16:52;;;;;;;37.13;20.15;;;;;;;;;;5042031;28;20065;-59
2021/01/08 09:19:41;;;;;;;39.45;21.08;;;;;;;;;;5035271;28;20444;-61
2021/01/08 09:22:08;;;;;;;37.80;19.55;;;;;;;;;;5045806;28;20101;-62
2021/01/08 09:24:35;;;;;;;39.83;21.25;;;;;;;;;;5039368;28;20025;-61
2021/01/08 09:27:01;;;;;;;40.38;21.73;;;;;;;;;;5036313;28;20061;-61
2021/01/08 09:29:28;;;;;;;45.67;25.70;;;;;;;;;;5047222;28;20025;-61
2021/01/08 09:31:56;;;;;;;52.78;27.73;;;;;;;;;;5034430;28;20021;-61
2021/01/08 09:34:23;;;;;;;57.97;29.98;;;;;;;;;;5039978;28;20029;-61
2021/01/08 09:36:50;;;;;;;57.70;30.58;;;;;;;;;;5036678;28;20104;-61
2021/01/08 09:39:16;;;;;;;55.90;31.13;;;;;;;;;;5056501;28;20033;-61
2021/01/08 09:41:43;;;;;;;54.08;28.95;;;;;;;;;;5033742;28;20052;-60
2021/01/08 09:44:10;;;;;;;55.60;29.75;;;;;;;;;;5046688;28;20037;-62
2021/01/08 09:46:58;;;;;;;54.13;29.40;;;;;;;;;;5047500;28;20025;-61
2021/01/08 09:49:25;;;;;;;52.60;28.60;;;;;;;;;;5046449;28;20044;-61
2021/01/08 09:52:01;;;;;;;62.85;31.77;;;;;;;;;;5036332;28;20748;-61
2021/01/08 09:54:40;;;;;;;61.85;33.95;;;;;;;;;;5039908;28;20089;-61
2021/01/08 09:57:06;;;;;;;69.45;33.55;;;;;;;;;;5043597;28;20024;-61
2021/01/08 09:59:32;;;;;;;48.47;27.63;;;;;;;;;;5045729;28;20043;-61
2021/01/08 10:02:09;;;;;;;43.95;25.40;;;;;;;;;;5048858;28;21702;-61
2021/01/08 10:04:36;;;;;;;46.67;24.95;;;;;;;;;;5047579;28;20029;-61
2021/01/08 10:07:05;;;;;;;40.92;23.15;;;;;;;;;;5035841;28;20116;-62
2021/01/08 10:09:51;;;;;;;47.08;23.20;;;;;;;;;;5040499;28;20033;-61
2021/01/08 10:12:18;;;;;;;45.85;22.23;;;;;;;;;;5040660;28;20025;-61
2021/01/08 10:14:45;;;;;;;46.88;23.00;;;;;;;;;;5033403;28;20486;-61
2021/01/08 10:17:15;;;;;;;40.25;22.70;;;;;;;;;;5042027;28;20014;-61
2021/01/08 10:19:42;;;;;;;46.83;24.38;;;;;;;;;;5032968;28;20064;-61
2021/01/08 10:22:08;;;;;;;45.67;24.85;;;;;;;;;;5036792;28;20129;-60
2021/01/08 10:24:35;;;;;;;47.05;26.25;;;;;;;;;;5040489;28;20402;-61
2021/01/08 10:27:01;;;;;;;42.45;22.42;;;;;;;;;;5044606;28;20480;-59
2021/01/08 10:29:41;;;;;;;43.67;24.00;;;;;;;;;;5045204;28;20474;-61
2021/01/08 10:32:09;;;;;;;40.40;23.52;;;;;;;;;;5048060;28;20052;-60
2021/01/08 10:34:39;;;;;;;42.67;24.02;;;;;;;;;;5048812;28;20033;-61
2021/01/08 10:37:05;;;;;;;42.53;23.33;;;;;;;;;;5040696;28;20029;-59
2021/01/08 10:39:31;;;;;;;43.97;23.63;;;;;;;;;;5047673;28;20523;-61
2021/01/08 10:41:57;;;;;;;41.13;22.45;;;;;;;;;;5046740;28;20079;-61
2021/01/08 10:44:24;;;;;;;40.50;21.88;;;;;;;;;;5042105;28;20025;-63
2021/01/08 10:46:50;;;;;;;40.42;22.65;;;;;;;;;;5034528;28;20029;-68
2021/01/08 10:49:16;;;;;;;38.63;21.52;;;;;;;;;;5038867;28;20033;-68
2021/01/08 10:51:42;;;;;;;42.78;22.83;;;;;;;;;;5038481;28;20040;-61
2021/01/08 10:54:15;;;;;;;57.20;30.35;;;;;;;;;;5038087;28;20021;-60
2021/01/08 10:56:41;;;;;;;117.40;55.38;;;;;;;;;;5041654;28;20063;-60
2021/01/08 10:59:07;;;;;;;40.45;24.20;;;;;;;;;;5034305;28;20037;-59
2021/01/08 11:01:40;;;;;;;44.90;24.00;;;;;;;;;;5036839;28;20037;-60
2021/01/08 11:04:06;;;;;;;40.83;24.90;;;;;;;;;;5038163;28;20052;-61
2021/01/08 11:06:32;;;;;;;42.72;25.20;;;;;;;;;;5037866;28;20528;-60
2021/01/08 11:08:58;;;;;;;50.05;25.25;;;;;;;;;;5053318;28;20032;-61
2021/01/08 11:11:24;;;;;;;39.85;24.85;;;;;;;;;;5036614;28;20428;-61
2021/01/08 11:13:51;;;;;;;43.35;22.88;;;;;;;;;;5034779;28;20079;-61
2021/01/08 11:16:17;;;;;;;37.92;21.40;;;;;;;;;;5051845;28;20482;-61
2021/01/08 11:18:43;;;;;;;37.55;22.25;;;;;;;;;;5039958;28;20036;-61
2021/01/08 11:21:09;;;;;;;37.40;21.63;;;;;;;;;;5037681;28;20029;-60
2021/01/08 11:23:38;;;;;;;41.42;22.75;;;;;;;;;;5037969;28;20035;-61
2021/01/08 11:26:04;;;;;;;41.42;23.50;;;;;;;;;;5033221;28;20047;-60
2021/01/08 11:28:30;;;;;;;44.95;24.42;;;;;;;;;;5037726;28;20083;-61
2021/01/08 11:30:56;;;;;;;44.63;24.90;;;;;;;;;;5037364;28;20040;-61
2021/01/08 11:33:22;;;;;;;39.75;20.85;;;;;;;;;;5039485;28;20026;-61
2021/01/08 11:35:48;;;;;;;41.15;20.52;;;;;;;;;;5037232;28;20065;-60
2021/01/08 11:38:14;;;;;;;36.40;21.60;;;;;;;;;;5050157;28;20047;-60
2021/01/08 11:40:41;;;;;;;40.72;20.60;;;;;;;;;;5035409;28;20041;-61
2021/01/08 11:43:07;;;;;;;38.95;20.20;;;;;;;;;;5047780;28;20037;-58
2021/01/08 11:45:33;;;;;;;30.95;18.50;;;;;;;;;;5046436;28;20028;-61
2021/01/08 11:47:59;;;;;;;32.45;16.90;;;;;;;;;;5045981;28;20053;-61
2021/01/08 11:50:25;;;;;;;30.30;14.48;;;;;;;;;;5036978;28;20029;-60
2021/01/08 11:52:51;;;;;;;31.08;15.95;;;;;;;;;;5038823;28;20151;-61
2021/01/08 11:55:17;;;;;;;26.30;13.48;;;;;;;;;;5051996;28;20024;-60
2021/01/08 11:57:43;;;;;;;21.48;13.15;;;;;;;;;;5039526;28;20036;-61
2021/01/08 12:00:10;;;;;;;16.00;10.13;;;;;;;;;;5038606;28;20076;-60
2021/01/08 12:02:38;;;;;;;17.02;9.88;;;;;;;;;;5049989;28;20124;-61
2021/01/08 12:05:05;;;;;;;18.02;10.48;;;;;;;;;;5034854;28;20398;-61
2021/01/08 12:07:33;;;;;;;14.75;9.38;;;;;;;;;;5048863;28;20021;-61
2021/01/08 12:09:59;;;;;;;18.88;9.80;;;;;;;;;;5046312;28;20463;-60
2021/01/08 12:12:25;;;;;;;16.63;8.85;;;;;;;;;;5041838;28;20028;-60
2021/01/08 12:14:51;;;;;;;16.08;8.82;;;;;;;;;;5046581;28;20024;-61
2021/01/08 12:17:17;;;;;;;19.52;9.68;;;;;;;;;;5049410;28;20017;-63
2021/01/08 12:19:43;;;;;;;16.50;9.10;;;;;;;;;;5050549;28;20037;-60
2021/01/08 12:22:10;;;;;;;16.15;9.48;;;;;;;;;;5051155;28;20028;-61
2021/01/08 12:24:37;;;;;;;15.48;8.85;;;;;;;;;;5049399;28;20027;-59
2021/01/08 12:27:03;;;;;;;15.00;8.95;;;;;;;;;;5049794;28;20091;-61
2021/01/08 12:29:31;;;;;;;16.55;10.00;;;;;;;;;;5049424;28;20037;-61
2021/01/08 12:32:01;;;;;;;15.52;9.10;;;;;;;;;;5049735;28;20018;-61
2021/01/08 12:34:27;;;;;;;15.35;8.77;;;;;;;;;;5051364;28;20078;-61
2021/01/08 12:36:53;;;;;;;17.00;9.00;;;;;;;;;;5049210;28;20040;-60
2021/01/08 12:39:19;;;;;;;16.40;9.90;;;;;;;;;;5048922;28;20024;-59
2021/01/08 12:41:45;;;;;;;20.63;11.38;;;;;;;;;;5045994;28;20043;-61
2021/01/08 12:44:12;;;;;;;16.85;10.55;;;;;;;;;;5036281;28;20021;-60
2021/01/08 12:46:38;;;;;;;18.05;10.80;;;;;;;;;;5050110;28;20018;-60
2021/01/08 12:49:05;;;;;;;18.65;10.98;;;;;;;;;;5048172;28;20044;-61
2021/01/08 12:51:32;;;;;;;21.65;11.85;;;;;;;;;;5047422;28;20163;-58
2021/01/08 12:53:58;;;;;;;18.55;10.13;;;;;;;;;;5046597;28;20033;-61
2021/01/08 12:56:37;;;;;;;17.10;9.45;;;;;;;;;;5047176;28;20043;-60
2021/01/08 12:59:03;;;;;;;17.95;10.20;;;;;;;;;;5047266;28;20035;-60
2021/01/08 13:01:29;;;;;;;21.00;10.80;;;;;;;;;;5048691;28;20099;-61
2021/01/08 13:03:55;;;;;;;20.52;11.25;;;;;;;;;;5047723;28;20017;-61
2021/01/08 13:06:22;;;;;;;21.15;10.82;;;;;;;;;;5048093;28;20387;-60
2021/01/08 13:08:48;;;;;;;21.05;11.05;;;;;;;;;;5048315;28;20033;-60
2021/01/08 13:11:14;;;;;;;19.15;10.02;;;;;;;;;;5047897;28;20021;-61
2021/01/08 13:13:40;;;;;;;17.70;10.02;;;;;;;;;;5049105;28;20029;-60
2021/01/08 13:16:07;;;;;;;16.65;10.23;;;;;;;;;;5048183;28;20029;-61
2021/01/08 13:18:33;;;;;;;17.67;10.48;;;;;;;;;;5048350;28;20043;-59
2021/01/08 13:20:59;;;;;;;15.32;9.32;;;;;;;;;;5045152;28;20037;-59
2021/01/08 13:23:25;;;;;;;19.33;11.05;;;;;;;;;;5048112;28;20091;-61
2021/01/08 13:25:51;;;;;;;20.13;10.73;;;;;;;;;;5048506;28;20127;-60
2021/01/08 13:28:17;;;;;;;15.23;9.13;;;;;;;;;;5049807;28;20062;-60
2021/01/08 13:30:47;;;;;;;17.70;11.13;;;;;;;;;;5046207;28;20436;-60
2021/01/08 13:33:14;;;;;;;19.20;10.70;;;;;;;;;;5045492;28;20523;-60
2021/01/08 13:35:40;;;;;;;14.60;9.38;;;;;;;;;;5047635;28;20044;-61
2021/01/08 13:38:06;;;;;;;16.88;9.63;;;;;;;;;;5048013;28;20024;-60
2021/01/08 13:40:32;;;;;;;18.70;10.07;;;;;;;;;;5049628;28;20112;-60
2021/01/08 13:42:58;;;;;;;15.15;9.55;;;;;;;;;;5046458;28;20418;-60
2021/01/08 13:45:24;;;;;;;16.92;8.50;;;;;;;;;;5047829;28;20052;-61
2021/01/08 13:47:50;;;;;;;15.05;8.70;;;;;;;;;;5047645;28;20064;-60
2021/01/08 13:50:16;;;;;;;16.10;8.45;;;;;;;;;;5047192;28;20069;-61
2021/01/08 13:52:44;;;;;;;17.75;9.32;;;;;;;;;;5046545;28;20040;-61
2021/01/08 13:55:11;;;;;;;15.15;9.20;;;;;;;;;;5048966;28;20044;-60
2021/01/08 13:57:37;;;;;;;18.10;10.65;;;;;;;;;;5046940;28;20032;-61
2021/01/08 14:00:07;;;;;;;20.98;10.85;;;;;;;;;;5044959;28;20052;-60
2021/01/08 14:02:34;;;;;;;18.25;9.77;;;;;;;;;;5047584;28;20025;-61
2021/01/08 14:05:00;;;;;;;19.38;10.60;;;;;;;;;;5046896;28;20754;-61
2021/01/08 14:07:26;;;;;;;16.17;9.50;;;;;;;;;;5049022;28;20052;-61
2021/01/08 14:09:52;;;;;;;19.15;11.27;;;;;;;;;;5047696;28;20069;-61
2021/01/08 14:12:18;;;;;;;20.95;11.23;;;;;;;;;;5049696;28;20158;-62
2021/01/08 14:14:45;;;;;;;19.98;10.88;;;;;;;;;;5051704;28;20025;-61
2021/01/08 14:17:11;;;;;;;18.42;10.60;;;;;;;;;;5050516;28;20443;-61
2021/01/08 14:19:37;;;;;;;20.70;10.52;;;;;;;;;;5050412;28;20517;-61
2021/01/08 14:22:03;;;;;;;17.67;10.82;;;;;;;;;;5051830;28;20033;-60
2021/01/08 14:24:29;;;;;;;20.58;10.60;;;;;;;;;;5051323;28;20134;-60
2021/01/08 14:26:58;;;;;;;16.25;9.52;;;;;;;;;;5051108;28;20548;-60
2021/01/08 14:29:24;;;;;;;18.50;10.85;;;;;;;;;;5051419;28;20037;-61
2021/01/08 14:31:50;;;;;;;16.60;9.77;;;;;;;;;;5051745;28;20025;-61
2021/01/08 14:34:17;;;;;;;19.13;10.77;;;;;;;;;;5053046;28;20457;-61
2021/01/08 14:36:46;;;;;;;23.05;13.05;;;;;;;;;;5051350;28;20093;-61
2021/01/08 14:39:12;;;;;;;17.02;10.32;;;;;;;;;;5051142;28;20019;-61
2021/01/08 14:41:38;;;;;;;17.90;10.20;;;;;;;;;;5048479;28;20033;-61
2021/01/08 14:44:05;;;;;;;22.60;10.63;;;;;;;;;;5051370;28;20389;-61
2021/01/08 14:46:31;;;;;;;11.90;8.18;;;;;;;;;;5053348;28;20037;-60
2021/01/08 14:48:57;;;;;;;11.27;6.38;;;;;;;;;;5050898;28;20025;-61
2021/01/08 14:51:25;;;;;;;14.10;6.65;;;;;;;;;;5051953;28;20063;-61
2021/01/08 14:53:51;;;;;;;12.23;5.68;;;;;;;;;;5051812;28;20131;-60
2021/01/08 14:56:17;;;;;;;8.38;4.43;;;;;;;;;;5051940;28;20394;-61
2021/01/08 14:58:43;;;;;;;8.98;4.32;;;;;;;;;;5051331;28;20021;-60
2021/01/08 15:01:10;;;;;;;8.00;4.38;;;;;;;;;;5052856;28;20087;-61
2021/01/08 15:03:36;;;;;;;8.20;4.50;;;;;;;;;;5051277;28;20029;-61
2021/01/08 15:06:02;;;;;;;8.85;4.45;;;;;;;;;;5051560;28;20056;-61
2021/01/08 15:08:28;;;;;;;6.82;3.83;;;;;;;;;;5049726;28;20032;-60
2021/01/08 15:10:58;;;;;;;8.38;4.85;;;;;;;;;;5044453;28;20045;-61
2021/01/08 15:13:25;;;;;;;7.55;4.30;;;;;;;;;;5051078;28;20402;-61
2021/01/08 15:15:51;;;;;;;7.20;4.30;;;;;;;;;;5038581;28;20076;-61
2021/01/08 15:18:17;;;;;;;8.52;5.47;;;;;;;;;;5037661;28;20036;-61
2021/01/08 15:20:56;;;;;;;9.90;5.10;;;;;;;;;;5047834;28;20029;-60
2021/01/08 15:23:22;;;;;;;9.80;6.93;;;;;;;;;;5032651;28;20040;-60
2021/01/08 15:25:48;;;;;;;7.10;4.95;;;;;;;;;;5050641;28;20025;-61
2021/01/08 15:28:14;;;;;;;7.18;3.78;;;;;;;;;;5037059;28;20033;-61
2021/01/08 15:30:40;;;;;;;7.18;2.72;;;;;;;;;;5043875;28;20119;-61
2021/01/08 15:33:06;;;;;;;8.13;2.88;;;;;;;;;;5045295;28;20471;-60
2021/01/08 15:35:32;;;;;;;2.10;1.30;;;;;;;;;;5048886;28;20086;-61
2021/01/08 15:37:58;;;;;;;4.68;3.00;;;;;;;;;;5049573;28;20049;-60
2021/01/08 15:40:26;;;;;;;4.05;2.42;;;;;;;;;;5052091;28;20524;-61
2021/01/08 15:42:52;;;;;;;4.90;2.75;;;;;;;;;;5038572;28;20084;-61
2021/01/08 15:45:18;;;;;;;2.28;1.30;;;;;;;;;;5037801;28;20100;-61
2021/01/08 15:47:46;;;;;;;2.60;1.48;;;;;;;;;;5037509;28;20227;-60
2021/01/08 15:50:14;;;;;;;21.42;10.75;;;;;;;;;;5034014;28;20497;-60
2021/01/08 15:52:40;;;;;;;28.77;15.93;;;;;;;;;;5035701;28;20439;-60
2021/01/08 15:55:12;;;;;;;33.40;18.38;;;;;;;;;;5047387;28;20071;-60
2021/01/08 15:57:38;;;;;;;29.75;15.93;;;;;;;;;;5040187;28;20036;-60
2021/01/08 16:00:05;;;;;;;32.80;17.30;;;;;;;;;;5036494;28;20116;-61
2021/01/08 16:02:32;;;;;;;31.45;15.60;;;;;;;;;;5035948;28;20036;-60
2021/01/08 16:04:58;;;;;;;21.13;9.77;;;;;;;;;;5038796;28;20029;-61
2021/01/08 16:07:26;;;;;;;12.48;5.47;;;;;;;;;;5044400;28;20090;-60
2021/01/08 16:09:52;;;;;;;6.63;3.55;;;;;;;;;;5036602;28;20037;-61
2021/01/08 16:12:18;;;;;;;5.68;2.22;;;;;;;;;;5036254;28;20406;-60
2021/01/08 16:14:44;;;;;;;4.75;2.05;;;;;;;;;;5038531;28;20013;-59
2021/01/08 16:17:10;;;;;;;4.45;1.88;;;;;;;;;;5042676;28;20049;-61
2021/01/08 16:19:36;;;;;;;8.00;3.75;;;;;;;;;;5036561;28;20056;-60
2021/01/08 16:22:02;;;;;;;4.90;2.65;;;;;;;;;;5038895;28;20060;-61
2021/01/08 16:24:29;;;;;;;3.90;2.13;;;;;;;;;;5036538;28;20063;-60
2021/01/08 16:26:55;;;;;;;1.67;1.10;;;;;;;;;;5035816;28;20037;-59
2021/01/08 16:29:21;;;;;;;0.10;0.10;;;;;;;;;;5033910;28;20030;-60
2021/01/08 16:31:50;;;;;;;0.22;0.22;;;;;;;;;;5032952;28;20379;-61
2021/01/08 16:34:17;;;;;;;0.10;0.10;;;;;;;;;;5037143;28;20072;-61
2021/01/08 16:36:43;;;;;;;4.13;1.80;;;;;;;;;;5040428;28;20033;-61
2021/01/08 16:39:09;;;;;;;4.57;2.60;;;;;;;;;;5041048;28;20024;-61
2021/01/08 16:41:35;;;;;;;3.55;1.98;;;;;;;;;;5037217;28;20418;-60
2021/01/08 16:44:01;;;;;;;4.90;2.85;;;;;;;;;;5044658;28;20037;-60
2021/01/08 16:46:27;;;;;;;0.30;0.30;;;;;;;;;;5045214;28;20052;-61
2021/01/08 16:48:53;;;;;;;0.10;0.10;;;;;;;;;;5042370;28;20142;-61
2021/01/08 16:51:20;;;;;;;7.32;3.75;;;;;;;;;;5041178;28;20059;-60
2021/01/08 16:53:46;;;;;;;8.40;4.35;;;;;;;;;;5033215;28;20079;-60
2021/01/08 16:56:13;;;;;;;6.28;3.60;;;;;;;;;;5048337;28;20024;-61
2021/01/08 16:58:40;;;;;;;7.15;3.58;;;;;;;;;;5041803;28;20036;-60
2021/01/08 17:01:07;;;;;;;0.20;0.20;;;;;;;;;;5037737;28;20129;-61
2021/01/08 17:03:33;;;;;;;5.10;2.22;;;;;;;;;;5038813;28;20050;-60
2021/01/08 17:05:59;;;;;;;80.30;30.38;;;;;;;;;;5045821;28;20021;-61
2021/01/08 17:08:25;;;;;;;0.20;0.20;;;;;;;;;;5045702;28;20029;-61
2021/01/08 17:10:53;;;;;;;5.10;4.68;;;;;;;;;;5045817;28;20418;-59
2021/01/08 17:13:19;;;;;;;1.10;1.10;;;;;;;;;;5046595;28;20028;-61
2021/01/08 17:15:45;;;;;;;0.20;0.20;;;;;;;;;;5045715;28;20029;-59
2021/01/08 17:18:12;;;;;;;0.30;0.30;;;;;;;;;;5045315;28;20668;-61
2021/01/08 17:20:38;;;;;;;0.85;0.85;;;;;;;;;;5045640;28;20041;-62
2021/01/08 17:23:04;;;;;;;0.30;0.30;;;;;;;;;;5045688;28;20021;-61
2021/01/08 17:25:30;;;;;;;2.53;2.33;;;;;;;;;;5046831;28;20021;-61
2021/01/08 17:27:56;;;;;;;13.48;10.38;;;;;;;;;;5046578;28;20100;-61
2021/01/08 17:30:22;;;;;;;8.98;3.50;;;;;;;;;;5046534;28;20025;-61
2021/01/08 17:32:48;;;;;;;9.48;7.30;;;;;;;;;;5046334;28;20049;-62
2021/01/08 17:35:16;;;;;;;9.20;7.25;;;;;;;;;;5044392;28;20414;-61
2021/01/08 17:37:43;;;;;;;13.20;9.35;;;;;;;;;;5031949;28;20490;-61
2021/01/08 17:40:09;;;;;;;10.57;5.25;;;;;;;;;;5032773;28;20072;-61
2021/01/08 17:42:35;;;;;;;12.98;7.63;;;;;;;;;;5040491;28;20529;-60
2021/01/08 17:45:03;;;;;;;19.00;11.75;;;;;;;;;;5036119;28;20040;-60
2021/01/08 17:47:29;;;;;;;24.48;15.13;;;;;;;;;;5042554;28;20029;-61
2021/01/08 17:49:55;;;;;;;37.20;21.33;;;;;;;;;;5044219;28;20389;-61
2021/01/08 17:52:21;;;;;;;61.20;33.90;;;;;;;;;;5046538;28;20029;-62
2021/01/08 17:54:48;;;;;;;52.42;29.98;;;;;;;;;;5041166;28;20049;-62
2021/01/08 17:57:14;;;;;;;51.38;27.73;;;;;;;;;;5032713;28;20529;-62
2021/01/08 17:59:40;;;;;;;46.97;28.35;;;;;;;;;;5040746;28;20029;-62
2021/01/08 18:02:06;;;;;;;43.67;26.48;;;;;;;;;;5045508;28;20018;-60
2021/01/08 18:04:32;;;;;;;2.38;2.28;;;;;;;;;;5047688;28;20482;-61
2021/01/08 18:06:58;;;;;;;12.45;6.43;;;;;;;;;;5045025;28;20028;-61
2021/01/08 18:09:24;;;;;;;35.40;18.05;;;;;;;;;;5044000;28;20078;-61
2021/01/08 18:11:51;;;;;;;36.80;21.55;;;;;;;;;;5044644;28;20375;-61
2021/01/08 18:14:18;;;;;;;34.88;19.42;;;;;;;;;;5045481;28;20040;-59
2021/01/08 18:16:51;;;;;;;35.28;19.10;;;;;;;;;;5046179;28;20019;-60
2021/01/08 18:19:18;;;;;;;32.15;19.17;;;;;;;;;;5047257;28;20468;-61
2021/01/08 18:21:44;;;;;;;37.40;21.95;;;;;;;;;;5044672;28;20734;-60
2021/01/08 18:24:10;;;;;;;30.70;18.95;;;;;;;;;;5045171;28;20058;-60
2021/01/08 18:26:37;;;;;;;33.53;17.02;;;;;;;;;;5045767;28;20029;-61
2021/01/08 18:29:04;;;;;;;30.65;18.17;;;;;;;;;;5044998;28;20074;-61
2021/01/08 18:31:30;;;;;;;27.05;14.77;;;;;;;;;;5045420;28;20033;-62
2021/01/08 18:33:56;;;;;;;31.23;14.40;;;;;;;;;;5045249;28;20036;-59
2021/01/08 18:36:30;;;;;;;40.30;20.92;;;;;;;;;;5044818;28;20108;-60
2021/01/08 18:38:56;;;;;;;41.90;20.65;;;;;;;;;;5045360;28;20044;-62
2021/01/08 18:41:22;;;;;;;44.83;21.90;;;;;;;;;;5043473;28;20038;-61
2021/01/08 18:43:48;;;;;;;56.58;27.23;;;;;;;;;;5032322;28;20033;-61
2021/01/08 18:46:14;;;;;;;58.80;26.20;;;;;;;;;;5034247;28;20033;-60
2021/01/08 18:48:40;;;;;;;47.90;23.38;;;;;;;;;;5034165;28;20482;-59
2021/01/08 18:51:06;;;;;;;54.25;24.38;;;;;;;;;;5047452;28;20044;-61
2021/01/08 18:53:32;;;;;;;17.60;9.63;;;;;;;;;;5045215;28;20061;-61
2021/01/08 18:55:59;;;;;;;38.80;17.92;;;;;;;;;;5046669;28;20516;-62
2021/01/08 18:58:25;;;;;;;59.88;25.52;;;;;;;;;;5051481;28;20086;-61
2021/01/08 19:00:51;;;;;;;54.30;20.60;;;;;;;;;;5050588;28;20057;-62
2021/01/08 19:03:17;;;;;;;41.55;16.98;;;;;;;;;;5046510;28;20090;-61
2021/01/08 19:05:46;;;;;;;3.92;1.85;;;;;;;;;;5049814;28;20381;-60
2021/01/08 19:08:13;;;;;;;37.08;17.20;;;;;;;;;;5051323;28;20112;-60
2021/01/08 19:10:43;;;;;;;55.03;23.27;;;;;;;;;;5052253;28;20029;-60
2021/01/08 19:13:11;;;;;;;56.00;25.63;;;;;;;;;;5049089;28;20040;-61
2021/01/08 19:15:37;;;;;;;57.45;27.40;;;;;;;;;;5041297;28;20037;-60
2021/01/08 19:18:03;;;;;;;55.35;26.63;;;;;;;;;;5041759;28;20035;-60
2021/01/08 19:20:33;;;;;;;60.17;28.80;;;;;;;;;;5042114;28;20041;-61
2021/01/08 19:23:00;;;;;;;62.45;28.38;;;;;;;;;;5043155;28;20402;-61
2021/01/08 19:25:26;;;;;;;56.78;26.65;;;;;;;;;;5048572;28;20025;-62
2021/01/08 19:27:52;;;;;;;57.05;26.60;;;;;;;;;;5045786;28;20040;-61
2021/01/08 19:30:19;;;;;;;52.50;26.75;;;;;;;;;;5042158;28;20045;-61
2021/01/08 19:32:46;;;;;;;61.45;32.10;;;;;;;;;;5041955;28;20528;-62
2021/01/08 19:35:13;;;;;;;51.45;23.33;;;;;;;;;;5040980;28;20387;-61
2021/01/08 19:37:39;;;;;;;49.78;24.30;;;;;;;;;;5043071;28;20057;-62
2021/01/08 19:40:06;;;;;;;40.00;20.13;;;;;;;;;;5042254;28;20033;-59
2021/01/08 19:42:36;;;;;;;39.75;18.95;;;;;;;;;;5045138;28;20040;-61
2021/01/08 19:45:03;;;;;;;35.17;18.65;;;;;;;;;;5045528;28;20032;-61
2021/01/08 19:47:29;;;;;;;41.33;18.25;;;;;;;;;;5038045;28;20029;-61
2021/01/08 19:49:55;;;;;;;34.75;19.23;;;;;;;;;;5037715;28;20722;-60
2021/01/08 19:52:21;;;;;;;43.33;16.92;;;;;;;;;;5046990;28;20041;-61
2021/01/08 19:54:49;;;;;;;39.00;19.00;;;;;;;;;;5043689;28;20055;-61
2021/01/08 19:57:18;;;;;;;48.75;22.98;;;;;;;;;;5046232;28;20769;-62
2021/01/08 19:59:45;;;;;;;57.00;27.25;;;;;;;;;;5044389;28;20029;-62
2021/01/08 20:02:12;;;;;;;68.30;30.48;;;;;;;;;;5046206;28;20063;-61
2021/01/08 20:04:38;;;;;;;78.00;36.72;;;;;;;;;;5047662;28;20032;-60
2021/01/08 20:07:05;;;;;;;78.22;35.10;;;;;;;;;;5045911;28;20091;-61
2021/01/08 20:09:31;;;;;;;75.50;40.78;;;;;;;;;;5045557;28;20036;-60
2021/01/08 20:11:57;;;;;;;79.50;41.20;;;;;;;;;;5040888;28;20036;-61
2021/01/08 20:14:24;;;;;;;71.95;42.47;;;;;;;;;;5038140;28;20553;-61
2021/01/08 20:16:50;;;;;;;81.35;39.03;;;;;;;;;;5043683;28;20104;-59
2021/01/08 20:19:17;;;;;;;75.75;39.58;;;;;;;;;;5047508;28;20059;-59
2021/01/08 20:21:43;;;;;;;76.93;40.92;;;;;;;;;;5043901;28;20447;-60
2021/01/08 20:24:09;;;;;;;71.50;33.78;;;;;;;;;;5042510;28;20025;-61
2021/01/08 20:26:38;;;;;;;85.55;40.05;;;;;;;;;;5044254;28;21967;-61